createdAt,value
2023-01-20T00:01:24.736Z,7.05
2023-01-20T00:03:53.473Z,8.40
2023-01-20T00:06:21.981Z,8.93
2023-01-20T00:08:53.119Z,7.73
2023-01-20T00:11:20.906Z,8.25
2023-01-20T00:13:48.378Z,8.35
2023-01-20T00:16:15.844Z,8.95
2023-01-20T00:18:43.151Z,9.27
2023-01-20T00:21:12.082Z,8.30
2023-01-20T00:23:39.845Z,8.15
2023-01-20T00:26:07.628Z,9.18
2023-01-20T00:28:35.651Z,9.70
2023-01-20T00:31:13.236Z,10.73
2023-01-20T00:33:40.816Z,10.00
2023-01-20T00:36:08.661Z,9.73
2023-01-20T00:38:36.176Z,9.35
2023-01-20T00:41:03.808Z,10.63
2023-01-20T00:43:31.028Z,10.35
2023-01-20T00:45:58.245Z,9.70
2023-01-20T00:48:25.652Z,11.63
2023-01-20T00:50:52.866Z,9.80
2023-01-20T00:53:20.121Z,10.43
2023-01-20T00:55:47.527Z,9.95
2023-01-20T00:58:14.739Z,10.80
2023-01-20T01:00:42.067Z,11.35
2023-01-20T01:03:12.619Z,11.85
2023-01-20T01:05:39.804Z,11.35
2023-01-20T01:08:07.091Z,11.13
2023-01-20T01:10:34.269Z,14.25
2023-01-20T01:13:02.092Z,15.57
2023-01-20T01:15:29.502Z,16.05
2023-01-20T01:17:57.492Z,20.23
2023-01-20T01:20:25.091Z,22.25
2023-01-20T01:22:52.327Z,26.48
2023-01-20T01:25:19.553Z,26.58
2023-01-20T01:27:46.861Z,25.85
2023-01-20T01:30:14.397Z,29.05
2023-01-20T01:32:41.679Z,27.83
2023-01-20T01:35:09.173Z,27.55
2023-01-20T01:37:36.442Z,28.80
2023-01-20T01:40:03.708Z,28.85
2023-01-20T01:42:31.093Z,26.83
2023-01-20T01:45:14.175Z,25.25
2023-01-20T01:47:44.651Z,23.70
2023-01-20T01:50:14.258Z,22.17
2023-01-20T01:52:42.800Z,24.85
2023-01-20T01:55:10.158Z,24.17
2023-01-20T01:57:37.529Z,24.33
2023-01-20T02:00:06.243Z,23.42
2023-01-20T02:02:41.491Z,23.42
2023-01-20T02:05:08.911Z,19.30
2023-01-20T02:07:36.683Z,25.23
2023-01-20T02:10:04.031Z,27.27
2023-01-20T02:12:31.311Z,28.88
2023-01-20T02:14:59.489Z,26.42
2023-01-20T02:17:30.640Z,25.77
2023-01-20T02:20:16.592Z,26.55
2023-01-20T02:22:50.825Z,26.55
2023-01-20T02:25:24.173Z,25.77
2023-01-20T02:28:03.366Z,27.15
2023-01-20T02:30:53.736Z,24.50
2023-01-20T02:33:32.312Z,25.17
2023-01-20T02:36:02.846Z,23.38
2023-01-20T02:38:36.368Z,25.02
2023-01-20T02:41:06.400Z,24.80
2023-01-20T02:43:39.737Z,26.33
2023-01-20T02:46:07.102Z,23.67
2023-01-20T02:48:42.341Z,22.83
2023-01-20T02:51:18.715Z,25.45
2023-01-20T02:53:49.704Z,26.33
2023-01-20T02:56:17.579Z,25.10
2023-01-20T02:58:52.358Z,24.40
2023-01-20T03:01:38.802Z,21.98
2023-01-20T03:04:07.330Z,21.63
2023-01-20T03:06:36.368Z,23.83
2023-01-20T03:09:06.337Z,21.63
2023-01-20T03:11:36.199Z,21.95
2023-01-20T03:14:11.493Z,21.63
2023-01-20T03:16:39.311Z,22.50
2023-01-20T03:19:06.564Z,22.15
2023-01-20T03:21:34.508Z,21.48
2023-01-20T03:24:02.640Z,21.15
2023-01-20T03:26:30.928Z,21.90
2023-01-20T03:28:58.900Z,23.73
2023-01-20T03:31:28.551Z,22.58
2023-01-20T03:33:57.809Z,24.60
2023-01-20T03:36:26.219Z,23.30
2023-01-20T03:38:54.114Z,16.65
2023-01-20T03:41:24.153Z,21.40
2023-01-20T03:44:10.615Z,22.45
2023-01-20T03:46:37.953Z,20.77
2023-01-20T03:49:25.377Z,22.33
2023-01-20T03:51:52.581Z,20.27
2023-01-20T03:54:23.159Z,22.75
2023-01-20T03:56:54.348Z,23.17
2023-01-20T03:59:22.361Z,24.98
2023-01-20T04:01:49.986Z,25.30
2023-01-20T04:04:18.636Z,26.40
2023-01-20T04:06:46.312Z,24.80
2023-01-20T04:09:20.314Z,24.08
2023-01-20T04:11:47.614Z,24.33
2023-01-20T04:14:14.848Z,27.15
2023-01-20T04:16:42.413Z,23.73
2023-01-20T04:19:09.646Z,24.35
2023-01-20T04:21:39.794Z,26.70
2023-01-20T04:24:15.995Z,25.35
2023-01-20T04:26:43.352Z,27.52
2023-01-20T04:29:12.995Z,26.40
2023-01-20T04:31:40.618Z,25.88
2023-01-20T04:34:08.417Z,27.92
2023-01-20T04:36:35.653Z,27.23
2023-01-20T04:39:02.888Z,27.58
2023-01-20T04:41:30.138Z,30.27
2023-01-20T04:43:57.405Z,27.13
2023-01-20T04:46:24.662Z,28.25
2023-01-20T04:48:51.956Z,30.30
2023-01-20T04:51:19.232Z,29.35
2023-01-20T04:53:46.571Z,27.20
2023-01-20T04:56:14.566Z,29.88
2023-01-20T04:58:42.228Z,31.17
2023-01-20T05:01:09.867Z,32.83
2023-01-20T05:03:37.245Z,30.55
2023-01-20T05:06:06.201Z,30.75
2023-01-20T05:08:33.626Z,29.98
2023-01-20T05:11:00.926Z,29.23
2023-01-20T05:13:28.286Z,32.67
2023-01-20T05:15:56.653Z,34.47
2023-01-20T05:18:23.924Z,31.67
2023-01-20T05:20:51.204Z,33.80
2023-01-20T05:23:18.415Z,29.33
2023-01-20T05:25:50.608Z,32.20
2023-01-20T05:28:18.030Z,33.38
2023-01-20T05:30:45.432Z,33.78
2023-01-20T05:33:12.927Z,30.27
2023-01-20T05:35:40.231Z,33.17
2023-01-20T05:38:07.756Z,33.17
2023-01-20T05:40:35.020Z,35.17
2023-01-20T05:43:02.900Z,34.15
2023-01-20T05:45:30.687Z,31.45
2023-01-20T05:47:58.537Z,31.13
2023-01-20T05:50:26.374Z,30.85
2023-01-20T05:52:53.683Z,31.83
2023-01-20T05:55:20.969Z,36.97
2023-01-20T05:57:48.198Z,35.55
2023-01-20T06:00:15.621Z,34.78
2023-01-20T06:02:42.885Z,33.90
2023-01-20T06:05:10.264Z,34.45
2023-01-20T06:07:37.475Z,39.58
2023-01-20T06:10:04.895Z,37.28
2023-01-20T06:12:32.095Z,44.05
2023-01-20T06:14:59.340Z,36.33
2023-01-20T06:17:26.643Z,37.00
2023-01-20T06:19:53.919Z,34.90
2023-01-20T06:22:21.478Z,37.30
2023-01-20T06:24:48.779Z,34.15
2023-01-20T06:27:16.003Z,34.60
2023-01-20T06:29:43.352Z,39.03
2023-01-20T06:32:10.820Z,36.83
2023-01-20T06:34:38.107Z,43.22
2023-01-20T06:37:05.329Z,36.55
2023-01-20T06:39:32.540Z,39.55
2023-01-20T06:42:00.405Z,38.92
2023-01-20T06:44:28.010Z,38.38
2023-01-20T06:46:57.363Z,34.70
2023-01-20T06:51:51.794Z,35.38
2023-01-20T06:54:19.170Z,35.10
2023-01-20T06:56:46.399Z,39.55
2023-01-20T06:59:13.748Z,35.53
2023-01-20T07:01:41.253Z,36.28
2023-01-20T07:04:08.707Z,35.55
2023-01-20T07:06:38.490Z,33.72
2023-01-20T07:09:06.440Z,36.03
2023-01-20T07:11:35.193Z,36.08
2023-01-20T07:14:02.775Z,38.88
2023-01-20T07:16:30.077Z,30.65
2023-01-20T07:18:57.669Z,33.85
2023-01-20T07:21:26.551Z,37.60
2023-01-20T07:23:54.401Z,32.60
2023-01-20T07:26:26.593Z,30.58
2023-01-20T07:28:54.108Z,30.15
2023-01-20T07:31:23.172Z,30.63
2023-01-20T07:33:51.029Z,34.10
2023-01-20T07:36:18.700Z,31.27
2023-01-20T07:38:49.889Z,31.08
2023-01-20T07:41:19.529Z,31.23
2023-01-20T07:43:47.765Z,25.95
2023-01-20T07:46:15.076Z,31.85
2023-01-20T07:48:42.581Z,30.92
2023-01-20T07:51:11.164Z,31.23
2023-01-20T07:53:43.551Z,28.05
2023-01-20T07:56:12.001Z,26.30
2023-01-20T07:58:39.509Z,31.00
2023-01-20T08:01:08.300Z,31.90
2023-01-20T08:03:36.064Z,26.67
2023-01-20T08:06:04.276Z,30.40
2023-01-20T08:08:32.705Z,28.13
2023-01-20T08:11:01.379Z,27.00
2023-01-20T08:13:29.543Z,27.15
2023-01-20T08:15:56.904Z,30.02
2023-01-20T08:18:24.177Z,31.35
2023-01-20T08:20:51.438Z,30.02
2023-01-20T08:23:18.724Z,28.15
2023-01-20T08:25:45.961Z,31.80
2023-01-20T08:28:13.309Z,32.28
2023-01-20T08:30:40.792Z,29.65
2023-01-20T08:33:08.061Z,29.92
2023-01-20T08:35:36.523Z,29.85
2023-01-20T08:38:03.860Z,23.40
2023-01-20T08:40:32.840Z,30.60
2023-01-20T08:43:01.593Z,27.45
2023-01-20T08:45:28.924Z,30.70
2023-01-20T08:47:56.140Z,27.17
2023-01-20T08:50:24.538Z,30.83
2023-01-20T08:52:51.847Z,27.20
2023-01-20T08:55:19.301Z,30.13
2023-01-20T08:57:46.587Z,30.00
2023-01-20T09:00:14.231Z,31.65
2023-01-20T09:02:41.535Z,33.13
2023-01-20T09:05:09.136Z,27.98
2023-01-20T09:07:36.480Z,26.10
2023-01-20T09:10:04.528Z,27.33
2023-01-20T09:12:31.820Z,28.58
2023-01-20T09:14:59.175Z,29.23
2023-01-20T09:17:26.446Z,30.95
2023-01-20T09:19:54.555Z,28.65
2023-01-20T09:22:21.793Z,29.02
2023-01-20T09:24:49.037Z,28.23
2023-01-20T09:27:16.348Z,30.73
2023-01-20T09:29:43.573Z,29.17
2023-01-20T09:32:11.736Z,30.90
2023-01-20T09:34:39.409Z,29.83
2023-01-20T09:37:25.218Z,28.73
2023-01-20T09:40:11.053Z,29.40
2023-01-20T09:43:06.651Z,25.88
2023-01-20T09:45:38.060Z,25.67
2023-01-20T09:48:32.551Z,30.02
2023-01-20T09:51:21.383Z,28.55
2023-01-20T09:53:56.323Z,27.52
2023-01-20T09:56:25.606Z,25.73
2023-01-20T09:59:07.100Z,29.15
2023-01-20T10:01:44.193Z,29.17
2023-01-20T10:04:30.085Z,23.83
2023-01-20T10:06:57.318Z,26.48
2023-01-20T10:09:43.465Z,30.55
2023-01-20T10:12:17.239Z,22.60
2023-01-20T10:14:44.503Z,25.85
2023-01-20T10:17:21.576Z,27.00
2023-01-20T10:19:51.661Z,26.00
2023-01-20T10:22:22.147Z,27.40
2023-01-20T10:24:53.064Z,24.98
2023-01-20T10:27:20.318Z,27.00
2023-01-20T10:29:50.380Z,25.98
2023-01-20T10:32:17.571Z,25.70
2023-01-20T10:34:48.388Z,27.35
2023-01-20T10:37:15.648Z,26.73
2023-01-20T10:39:45.529Z,27.45
2023-01-20T10:42:14.424Z,27.85
2023-01-20T10:44:41.974Z,30.60
2023-01-20T10:47:16.787Z,26.80
2023-01-20T10:49:59.822Z,21.48
2023-01-20T10:52:46.014Z,27.45
2023-01-20T10:55:25.334Z,27.15
2023-01-20T11:02:49.382Z,26.00
2023-01-20T11:05:21.742Z,25.35
2023-01-20T11:07:50.341Z,25.77
2023-01-20T11:10:19.253Z,27.02
2023-01-20T11:12:48.300Z,19.08
2023-01-20T11:15:21.434Z,23.83
2023-01-20T11:18:08.642Z,25.83
2023-01-20T11:20:36.352Z,24.27
2023-01-20T11:23:03.552Z,23.00
2023-01-20T11:25:30.771Z,24.27
2023-01-20T11:27:58.261Z,22.90
2023-01-20T11:30:28.313Z,22.10
2023-01-20T11:33:28.280Z,24.65
2023-01-20T11:36:01.516Z,21.35
2023-01-20T11:38:30.422Z,21.35
2023-01-20T11:40:57.985Z,23.75
2023-01-20T11:43:38.360Z,21.45
2023-01-20T11:46:25.491Z,21.63
2023-01-20T11:49:07.491Z,20.05
2023-01-20T11:51:44.621Z,21.83
2023-01-20T11:54:15.321Z,20.10
2023-01-20T11:56:43.748Z,21.08
2023-01-20T11:59:26.918Z,20.87
2023-01-20T12:02:01.535Z,17.83
2023-01-20T12:04:42.076Z,18.75
2023-01-20T12:07:19.249Z,19.25
2023-01-20T12:09:49.980Z,21.30
2023-01-20T12:12:20.229Z,20.30
2023-01-20T12:14:56.907Z,18.20
2023-01-20T12:17:38.364Z,18.45
2023-01-20T12:20:08.700Z,20.02
2023-01-20T12:22:44.738Z,21.85
2023-01-20T12:25:22.947Z,22.73
2023-01-20T12:27:50.546Z,17.10
2023-01-20T12:30:26.753Z,19.23
2023-01-20T12:32:54.068Z,23.00
2023-01-20T12:35:22.915Z,22.35
2023-01-20T12:37:57.744Z,28.17
2023-01-20T12:40:33.310Z,24.90
2023-01-20T12:43:00.553Z,34.60
2023-01-20T12:45:53.248Z,17.20
2023-01-20T12:48:31.116Z,21.35
2023-01-20T12:50:58.317Z,25.27
2023-01-20T12:53:38.976Z,29.80
2023-01-20T12:56:21.825Z,26.50
2023-01-20T12:59:07.857Z,19.67
2023-01-20T13:01:44.788Z,31.67
2023-01-20T13:04:30.738Z,26.92
2023-01-20T13:07:16.886Z,18.33
2023-01-20T13:09:44.124Z,23.33
2023-01-20T13:12:11.465Z,23.08
2023-01-20T13:14:42.233Z,17.00
2023-01-20T13:17:25.864Z,21.85
2023-01-20T13:19:57.222Z,16.73
2023-01-20T13:22:25.877Z,16.33
2023-01-20T13:24:54.468Z,16.05
2023-01-20T13:27:25.687Z,15.68
2023-01-20T13:29:57.218Z,17.20
2023-01-20T13:32:32.643Z,18.80
2023-01-20T13:35:00.575Z,16.77
2023-01-20T13:37:50.743Z,17.17
2023-01-20T13:40:36.160Z,19.35
2023-01-20T13:43:04.021Z,19.45
2023-01-20T13:45:31.461Z,18.38
2023-01-20T13:48:21.386Z,18.77
2023-01-20T13:50:50.244Z,19.27
2023-01-20T13:53:23.551Z,19.10
2023-01-20T13:56:24.947Z,19.08
2023-01-20T13:58:52.594Z,18.02
2023-01-20T14:01:19.919Z,17.58
2023-01-20T14:04:02.736Z,16.63
2023-01-20T14:06:32.708Z,19.02
2023-01-20T14:09:01.438Z,20.38
2023-01-20T14:11:29.598Z,20.25
2023-01-20T14:14:01.915Z,22.23
2023-01-20T14:16:30.246Z,18.58
2023-01-20T14:18:59.550Z,18.40
2023-01-20T14:23:54.072Z,21.70
2023-01-20T14:26:22.930Z,23.00
2023-01-20T14:28:51.781Z,19.55
2023-01-20T14:31:20.619Z,19.92
2023-01-20T14:33:49.408Z,20.55
2023-01-20T14:36:17.989Z,22.48
2023-01-20T14:38:57.274Z,20.02
2023-01-20T14:41:36.022Z,24.35
2023-01-20T14:44:03.596Z,21.13
2023-01-20T14:46:32.182Z,23.30
2023-01-20T14:49:00.168Z,23.13
2023-01-20T14:51:27.743Z,21.35
2023-01-20T14:54:13.902Z,23.25
2023-01-20T14:56:47.700Z,21.15
2023-01-20T14:59:21.480Z,24.92
2023-01-20T15:02:08.164Z,23.25
2023-01-20T15:04:38.661Z,24.40
2023-01-20T15:07:06.028Z,27.40
2023-01-20T15:09:34.872Z,24.58
2023-01-20T15:12:20.909Z,24.45
2023-01-20T15:15:00.543Z,24.25
2023-01-20T15:17:27.903Z,24.10
2023-01-20T15:19:55.659Z,22.35
2023-01-20T15:22:23.585Z,25.23
2023-01-20T15:24:51.286Z,26.13
2023-01-20T15:27:29.545Z,23.90
2023-01-20T15:30:05.211Z,25.13
2023-01-20T15:32:32.430Z,23.00
2023-01-20T15:34:59.726Z,25.63
2023-01-20T15:37:27.193Z,22.42
2023-01-20T15:39:54.529Z,23.50
2023-01-20T15:42:23.888Z,22.88
2023-01-20T15:44:51.386Z,21.52
2023-01-20T15:47:25.978Z,25.38
2023-01-20T15:49:53.308Z,26.02
2023-01-20T15:52:20.539Z,25.58
2023-01-20T15:54:47.786Z,23.05
2023-01-20T15:57:15.879Z,22.45
2023-01-20T15:59:46.486Z,23.88
2023-01-20T16:02:20.552Z,21.20
2023-01-20T16:04:47.947Z,22.05
2023-01-20T16:07:16.323Z,22.92
2023-01-20T16:09:44.276Z,24.08
2023-01-20T16:12:12.750Z,21.20
2023-01-20T16:14:40.228Z,21.67
2023-01-20T16:17:23.853Z,23.52
2023-01-20T16:19:51.660Z,25.17
2023-01-20T16:22:18.990Z,21.73
2023-01-20T16:24:49.087Z,24.10
2023-01-20T16:27:20.084Z,25.77
2023-01-20T16:29:47.595Z,22.05
2023-01-20T16:32:17.388Z,25.25
2023-01-20T16:34:46.388Z,23.77
2023-01-20T16:37:14.408Z,23.80
2023-01-20T16:39:41.807Z,25.48
2023-01-20T16:42:12.773Z,23.90
2023-01-20T16:44:40.052Z,22.85
2023-01-20T16:47:08.318Z,23.70
2023-01-20T16:49:35.710Z,25.38
2023-01-20T16:52:03.144Z,22.42
2023-01-20T16:54:30.388Z,24.55
2023-01-20T16:56:57.652Z,23.73
2023-01-20T16:59:25.966Z,24.60
2023-01-20T17:01:53.299Z,24.70
2023-01-20T17:04:20.549Z,23.73
2023-01-20T17:06:47.803Z,25.08
2023-01-20T17:09:15.218Z,26.02
2023-01-20T17:11:42.488Z,23.63
2023-01-20T17:14:11.196Z,25.65
2023-01-20T17:16:39.518Z,24.63
2023-01-20T17:19:07.026Z,28.00
2023-01-20T17:21:35.017Z,26.40
2023-01-20T17:24:03.201Z,25.63
2023-01-20T17:26:31.199Z,24.63
2023-01-20T17:29:02.742Z,24.38
2023-01-20T17:31:31.947Z,22.55
2023-01-20T17:33:59.582Z,21.73
2023-01-20T17:36:26.850Z,24.00
2023-01-20T17:38:56.748Z,23.38
2023-01-20T17:41:23.951Z,23.98
2023-01-20T17:43:51.254Z,22.85
2023-01-20T17:46:19.802Z,20.40
2023-01-20T17:48:47.213Z,20.85
2023-01-20T17:51:18.962Z,22.13
2023-01-20T17:53:46.473Z,20.85
2023-01-20T17:56:14.346Z,19.63
2023-01-20T17:58:42.716Z,21.80
2023-01-20T18:01:14.917Z,13.57
2023-01-20T18:03:43.292Z,19.38
2023-01-20T18:06:14.566Z,18.40
2023-01-20T18:08:41.866Z,19.23
2023-01-20T18:11:10.604Z,19.98
2023-01-20T18:13:38.234Z,19.98
2023-01-20T18:16:11.571Z,20.52
2023-01-20T18:18:39.599Z,21.33
2023-01-20T18:21:14.149Z,20.98
2023-01-20T18:23:41.873Z,20.67
2023-01-20T18:26:10.343Z,21.00
2023-01-20T18:28:38.613Z,20.80
2023-01-20T18:31:10.776Z,19.05
2023-01-20T18:33:45.683Z,20.58
2023-01-20T18:36:14.935Z,19.67
2023-01-20T18:41:13.381Z,22.65
2023-01-20T18:43:40.797Z,22.52
2023-01-20T18:46:08.680Z,23.55
2023-01-20T18:48:45.807Z,23.23
2023-01-20T18:51:17.626Z,23.67
2023-01-20T18:53:45.865Z,24.83
2023-01-20T18:56:14.531Z,25.23
2023-01-20T18:58:46.983Z,19.13
2023-01-20T19:01:16.527Z,26.67
2023-01-20T19:03:45.960Z,26.63
2023-01-20T19:08:40.771Z,24.95
2023-01-20T19:11:13.629Z,26.85
2023-01-20T19:13:41.610Z,27.38
2023-01-20T19:16:10.545Z,25.70
2023-01-20T19:18:38.135Z,25.02
2023-01-20T19:21:06.160Z,26.13
2023-01-20T19:23:33.655Z,24.65
2023-01-20T19:26:04.760Z,24.27
2023-01-20T19:28:32.146Z,24.58
2023-01-20T19:31:09.328Z,23.98
2023-01-20T19:33:37.094Z,26.95
2023-01-20T19:36:05.884Z,24.50
2023-01-20T19:38:34.227Z,27.45
2023-01-20T19:41:20.668Z,27.08
2023-01-20T19:43:47.985Z,25.48
2023-01-20T19:46:17.599Z,24.95
2023-01-20T19:48:45.457Z,25.55
2023-01-20T19:51:14.301Z,25.10
2023-01-20T19:53:42.195Z,22.40
2023-01-20T19:56:11.195Z,25.25
2023-01-20T19:58:38.996Z,25.27
2023-01-20T20:01:07.355Z,27.05
2023-01-20T20:03:34.632Z,21.15
2023-01-20T20:06:02.249Z,24.63
2023-01-20T20:08:29.477Z,27.70
2023-01-20T20:10:56.946Z,26.63
2023-01-20T20:13:24.215Z,26.52
2023-01-20T20:16:00.120Z,24.98
2023-01-20T20:18:27.435Z,25.92
2023-01-20T20:20:54.676Z,25.60
2023-01-20T20:23:22.080Z,27.05
2023-01-20T20:25:51.199Z,28.52
2023-01-20T20:28:18.871Z,24.35
2023-01-20T20:30:46.811Z,27.25
2023-01-20T20:33:14.143Z,27.77
2023-01-20T20:35:41.426Z,25.70
2023-01-20T20:38:08.694Z,26.35
2023-01-20T20:40:35.986Z,26.63
2023-01-20T20:43:03.863Z,27.27
2023-01-20T20:45:31.311Z,25.52
2023-01-20T20:47:58.618Z,24.05
2023-01-20T20:50:27.327Z,26.63
2023-01-20T20:52:54.595Z,24.48
2023-01-20T20:55:21.972Z,27.75
2023-01-20T20:57:49.264Z,25.13
2023-01-20T21:00:16.852Z,30.25
2023-01-20T21:02:44.277Z,29.42
2023-01-20T21:05:11.553Z,28.65
2023-01-20T21:07:38.824Z,27.02
2023-01-20T21:10:06.527Z,29.65
2023-01-20T21:12:33.828Z,27.98
2023-01-20T21:15:01.073Z,26.45
2023-01-20T21:17:28.562Z,26.30
2023-01-20T21:19:55.842Z,27.00
2023-01-20T21:22:23.466Z,26.70
2023-01-20T21:24:50.798Z,26.67
2023-01-20T21:27:18.108Z,26.75
2023-01-20T21:29:46.434Z,27.23
2023-01-20T21:32:13.734Z,29.75
2023-01-20T21:34:40.935Z,27.17
2023-01-20T21:37:08.607Z,28.35
2023-01-20T21:39:35.823Z,25.83
2023-01-20T21:42:06.011Z,28.10
2023-01-20T21:44:34.099Z,27.00
2023-01-20T21:47:02.489Z,29.05
2023-01-20T21:49:48.563Z,25.10
2023-01-20T21:52:35.822Z,26.20
2023-01-20T21:55:03.388Z,30.55
2023-01-20T21:57:32.642Z,28.77
2023-01-20T22:00:00.672Z,28.58
2023-01-20T22:02:29.029Z,26.98
2023-01-20T22:04:56.748Z,29.50
2023-01-20T22:07:24.365Z,30.67
2023-01-20T22:09:51.651Z,30.00
2023-01-20T22:12:19.002Z,31.83
2023-01-20T22:14:46.248Z,28.70
2023-01-20T22:17:13.615Z,30.75
2023-01-20T22:19:41.191Z,29.38
2023-01-20T22:22:08.634Z,29.92
2023-01-20T22:24:36.652Z,28.67
2023-01-20T22:27:04.025Z,27.75
2023-01-20T22:29:31.429Z,28.65
2023-01-20T22:32:02.265Z,32.47
2023-01-20T22:34:29.737Z,27.65
2023-01-20T22:36:57.940Z,29.95
2023-01-20T22:39:25.254Z,30.65
2023-01-20T22:41:52.525Z,28.23
2023-01-20T22:44:19.835Z,26.92
2023-01-20T22:46:47.145Z,28.98
2023-01-20T22:49:14.477Z,27.45
2023-01-20T22:51:41.860Z,27.05
2023-01-20T22:54:10.593Z,28.88
2023-01-20T22:56:38.975Z,23.92
2023-01-20T22:59:06.401Z,29.03
2023-01-20T23:01:34.908Z,29.65
2023-01-20T23:04:03.452Z,22.00
2023-01-20T23:06:34.878Z,28.83
2023-01-20T23:09:07.206Z,32.85
2023-01-20T23:11:36.297Z,29.70
2023-01-20T23:14:03.799Z,27.50
2023-01-20T23:16:31.082Z,29.20
2023-01-20T23:18:58.329Z,30.88
2023-01-20T23:21:25.959Z,27.60
2023-01-20T23:23:56.000Z,30.35
2023-01-20T23:26:28.331Z,29.77
2023-01-20T23:28:56.150Z,28.75
2023-01-20T23:31:24.215Z,29.63
2023-01-20T23:33:51.990Z,31.10
2023-01-20T23:36:21.035Z,31.98
2023-01-20T23:38:48.587Z,31.40
2023-01-20T23:41:16.169Z,30.02
2023-01-20T23:43:43.711Z,31.60
2023-01-20T23:46:11.283Z,28.67
2023-01-20T23:48:38.665Z,31.10
2023-01-20T23:51:06.475Z,29.92
2023-01-20T23:53:34.916Z,33.88
2023-01-20T23:56:21.398Z,35.33
2023-01-20T23:58:48.862Z,30.25
